Skip to main content

NOAA/GLERL Met Station at Chicago, IL

Previous 3 Hours (2 minute increments)
See also Previous 5 Days (top of hour)
Jump down to Data
Switch to [English][Metric]
Zoom: Click and drag, Pan: shift-click and drag, Unzoom: double-click, Unzoom All




See also 1-day windrose plot


NOAA/GLERL Met Station at Chicago, IL

Previous 3 Hours (2 minute increments)
See also Previous 5 Days (top of hour only)
Jump up to Graphs
Switch to [English][Metric]
                  Wind  Wind  Wind   Air   Dew   Rel
                   Spd   Gst   Dir  Temp    Pt   Hum
YYYY-MM-DD   CDT   kts   kts   deg     F     F     %
2019-06-15 16:36  11.1  11.5   137  64.4  64.3  99.6
2019-06-15 16:34  10.3  11.5   142  64.6  64.5  99.6
2019-06-15 16:32   9.7  10.7   147  64.6  64.5  99.6
2019-06-15 16:30   9.3  11.1   151  64.9  64.8  99.6
2019-06-15 16:28   9.3  10.1   159  65.1  65.1  99.9
2019-06-15 16:26   9.3  10.1   156  64.9  64.9  99.9
2019-06-15 16:24   9.1   9.7   158  64.8  64.7  99.9
2019-06-15 16:22   8.0   9.1   153  64.4  64.3  99.8
2019-06-15 16:20   7.8   8.7   157  64.2  64.1  99.7
2019-06-15 16:18   8.0   8.7   151  64.4  64.3  99.8
2019-06-15 16:16   7.8   9.1   157  63.9  63.8  99.9
2019-06-15 16:14   8.9   9.9   140  63.0  62.4  98.1
2019-06-15 16:12   9.1   9.5   142  64.2  63.8  98.5
2019-06-15 16:10   8.0   8.9   150  64.8  64.5  99.1
2019-06-15 16:08   8.9   9.5   151  64.8  64.4  98.9
2019-06-15 16:06   8.6   9.7   153  64.9  64.6  98.8
2019-06-15 16:04   8.4   9.7   153  64.9  64.6  98.7
2019-06-15 16:02   8.6   9.5   151  64.8  64.4  98.6
2019-06-15 16:00   9.3  11.1   156  64.8  64.4  98.6
2019-06-15 15:58   9.7  11.3   154  64.8  64.3  98.4
2019-06-15 15:56  10.3  11.7   151  64.6  64.1  98.4
2019-06-15 15:54  11.3  12.4   149  64.6  64.0  97.8
2019-06-15 15:52  10.1  12.4   152  64.8  64.2  98.1
2019-06-15 15:50  11.5  12.2   148  64.6  64.0  97.8
2019-06-15 15:48  11.3  12.4   148  64.6  63.9  97.7
2019-06-15 15:46  10.9  12.8   151  64.8  63.9  97.1
2019-06-15 15:44  10.5  12.4   150  64.6  64.0  97.8
2019-06-15 15:42  12.2  13.2   143  64.6  63.6  96.7
2019-06-15 15:40  11.7  12.6   149  64.8  63.9  96.9
2019-06-15 15:38  11.5  12.6   148  64.8  63.6  96.0
2019-06-15 15:36  10.3  12.2   152  64.9  63.6  95.4
2019-06-15 15:34  10.1  12.4   150  65.3  63.5  93.9
2019-06-15 15:32   9.7  10.9   158  65.3  63.7  94.4
2019-06-15 15:30   9.5  10.9   160  65.1  63.6  94.8
2019-06-15 15:28   9.3  10.9   155  65.1  63.3  93.8
2019-06-15 15:26   9.5  10.7   150  65.3  63.5  93.9
2019-06-15 15:24   9.7  10.5   149  65.1  63.4  94.0
2019-06-15 15:22   8.9   9.5   142  65.1  63.5  94.3
2019-06-15 15:20   7.2   8.2   131  65.1  63.5  94.4
2019-06-15 15:18   6.4   6.8   124  64.9  63.3  94.3
2019-06-15 15:16   7.2   7.6   128  64.8  63.1  94.3
2019-06-15 15:14   7.0   7.4   129  64.6  63.0  94.7
2019-06-15 15:12   6.4   6.8   120  64.4  63.0  95.1
2019-06-15 15:10   6.2   7.0   112  64.0  62.8  95.7
2019-06-15 15:08   6.6   7.0   106  63.9  62.6  95.5
2019-06-15 15:06   6.6   7.6   104  64.2  62.6  94.5
2019-06-15 15:04   5.2   5.4    99  64.0  62.8  95.7
2019-06-15 15:02   5.2   5.6    99  63.3  62.6  97.6
2019-06-15 15:00   6.2   6.6   101  62.2  61.8  98.5
2019-06-15 14:58   6.6   6.8   100  61.5  61.2  99.0
2019-06-15 14:56   6.2   6.8    93  61.0  60.6  98.7
2019-06-15 14:54   6.2   6.8    84  61.0  60.4  97.8
2019-06-15 14:52   5.6   6.6    88  61.5  60.6  96.7
2019-06-15 14:50   5.1   5.4   100  61.9  61.3  97.9
2019-06-15 14:48   5.2   5.6    98  61.5  60.6  96.7
2019-06-15 14:46   5.2   5.6    99  62.8  61.1  94.2
2019-06-15 14:44   4.5   4.9   107  63.5  62.0  94.7
2019-06-15 14:42   3.7   3.9   108  63.7  62.4  95.5
2019-06-15 14:40   4.3   5.2   109  63.5  62.0  94.7
2019-06-15 14:38   4.7   5.4   115  63.7  62.0  94.2
2019-06-15 14:36   3.7   3.9   118  63.7  62.2  95.0
2019-06-15 14:34   4.1   4.7   121  63.5  62.2  95.5
2019-06-15 14:32   5.8   7.0   113  63.7  61.8  93.4
2019-06-15 14:30   4.3   5.1   117  64.2  62.4  93.8
2019-06-15 14:28   3.7   4.5   123  64.0  62.5  94.7
2019-06-15 14:26   4.1   4.7   110  63.7  62.4  95.5
2019-06-15 14:24   4.1   4.9    98  63.3  62.2  96.1
2019-06-15 14:22   5.2   5.8    87  64.2  61.6  91.1
2019-06-15 14:20   1.7   2.3   149  66.0  63.0  89.8
2019-06-15 14:18   1.6   1.9   174  65.8  63.1  90.8
2019-06-15 14:16   1.4   1.7   173  65.8  63.0  90.3
2019-06-15 14:14   1.9   2.5   171  66.0  63.1  90.2
2019-06-15 14:12   2.3   2.5   193  65.8  63.0  90.5
2019-06-15 14:10   2.3   2.7   199  65.8  63.1  90.6
2019-06-15 14:08   2.9   3.5   216  65.7  63.0  90.9
2019-06-15 14:06   3.1   3.5   225  65.5  62.9  91.4
2019-06-15 14:04   4.3   5.1   205  65.5  63.0  91.6
2019-06-15 14:02   5.1   5.8   207  65.5  62.9  91.3
2019-06-15 14:00   6.0   7.0   206  65.5  63.0  91.5
2019-06-15 13:58   7.4  10.1   207  65.5  62.9  91.2
2019-06-15 13:56   7.6   8.9   194  65.5  62.9  91.4
2019-06-15 13:54   8.9  10.5   190  65.5  63.1  92.0
2019-06-15 13:52   8.7  10.3   189  65.5  63.1  91.8
2019-06-15 13:50   9.1  10.3   187  65.5  63.0  91.7
2019-06-15 13:48  10.3  10.5   183  65.1  62.9  92.4
2019-06-15 13:46   9.9  11.1   184  65.1  62.8  92.2
2019-06-15 13:44  11.1  12.4   186  64.8  62.6  92.7
2019-06-15 13:42  11.1  12.4   188  65.1  62.8  92.0
2019-06-15 13:40  12.1  13.0   189  65.1  62.8  92.1
2019-06-15 13:38  11.5  12.2   187  64.9  62.7  92.2
2019-06-15 13:36  11.3  11.9   187  65.1  62.7  91.9